Time;durP1;ratioP1;P1;durP2;ratioP2;P2;SDS_P1;SDS_P2;PMS_P1;PMS_P2;Temp;Humidity;BMP_temperature;BMP_pressure;BME280_temperature;BME280_humidity;BME280_pressure;Samples;Min_cycle;Max_cycle;Signal;HPM_P1;HPM_P2
2023/08/18 00:01:39;;;;;;;14.48;11.07;;;;;;;17.99;100.00;98679.13;4173772;28;20041;-75
2023/08/18 00:03:39;;;;;;;12.80;11.00;;;;;;;17.97;100.00;98676.75;4174183;28;20106;-75
2023/08/18 00:05:39;;;;;;;12.60;11.30;;;;;;;17.93;100.00;98668.41;4174194;28;20197;-75
2023/08/18 00:07:41;;;;;;;11.73;10.50;;;;;;;17.93;100.00;98673.19;4174403;28;20135;-75
2023/08/18 00:09:44;;;;;;;13.57;10.60;;;;;;;17.91;100.00;98676.44;4174325;28;20087;-75
2023/08/18 00:11:45;;;;;;;14.02;10.55;;;;;;;17.89;100.00;98678.88;4174462;28;20089;-75
2023/08/18 00:13:45;;;;;;;14.43;10.57;;;;;;;17.87;100.00;98678.50;4173169;28;20049;-75
2023/08/18 00:15:45;;;;;;;11.20;10.05;;;;;;;17.86;100.00;98681.69;4173882;28;20048;-75
2023/08/18 00:17:46;;;;;;;11.13;10.02;;;;;;;17.84;100.00;98684.94;4173872;28;20049;-74
2023/08/18 00:19:46;;;;;;;14.23;11.38;;;;;;;17.83;100.00;98688.16;4173882;28;20060;-74
2023/08/18 00:21:47;;;;;;;13.70;10.38;;;;;;;17.79;100.00;98679.81;4173713;28;20048;-75
2023/08/18 00:23:47;;;;;;;14.63;11.57;;;;;;;17.75;100.00;98687.47;4173323;28;20045;-74
2023/08/18 00:25:47;;;;;;;13.07;10.55;;;;;;;17.72;100.00;98684.72;4160965;28;20143;-74
2023/08/18 00:27:48;;;;;;;11.82;10.63;;;;;;;17.71;100.00;98680.31;4173081;28;20511;-74
2023/08/18 00:29:48;;;;;;;17.75;12.23;;;;;;;17.65;100.00;98683.56;4172139;28;20144;-75
2023/08/18 00:31:49;;;;;;;12.88;11.57;;;;;;;17.65;100.00;98679.97;4174276;28;20766;-75
2023/08/18 00:33:49;;;;;;;13.63;11.13;;;;;;;17.62;100.00;98669.59;4173030;28;20044;-74
2023/08/18 00:35:49;;;;;;;13.02;11.18;;;;;;;17.59;100.00;98667.66;4173914;28;20443;-75
2023/08/18 00:37:50;;;;;;;13.02;11.43;;;;;;;17.56;100.00;98669.31;4173090;28;20136;-75
2023/08/18 00:39:50;;;;;;;11.52;10.38;;;;;;;17.56;100.00;98682.50;4173251;28;20183;-74
2023/08/18 00:41:51;;;;;;;12.25;11.05;;;;;;;17.54;100.00;98674.53;4173564;28;20091;-74
2023/08/18 00:43:51;;;;;;;11.82;10.57;;;;;;;17.52;100.00;98676.16;4172773;28;20415;-74
2023/08/18 00:45:53;;;;;;;11.68;10.25;;;;;;;17.52;100.00;98670.56;4174081;28;20409;-75
2023/08/18 00:47:53;;;;;;;15.40;10.55;;;;;;;17.51;100.00;98675.34;4173587;28;20138;-75
2023/08/18 00:49:54;;;;;;;13.70;11.50;;;;;;;17.50;100.00;98679.38;4172161;28;20045;-74
2023/08/18 00:51:56;;;;;;;15.38;11.52;;;;;;;17.51;100.00;98682.97;4173744;28;20041;-75
2023/08/18 00:53:57;;;;;;;12.45;10.10;;;;;;;17.50;100.00;98681.38;4172917;28;20041;-74
2023/08/18 00:55:57;;;;;;;11.45;10.23;;;;;;;17.50;100.00;98682.16;4173294;28;20175;-75
2023/08/18 00:58:00;;;;;;;14.02;11.32;;;;;;;17.47;100.00;98676.63;4173725;28;20209;-75
2023/08/18 01:00:02;;;;;;;11.60;10.40;;;;;;;17.43;100.00;98676.66;4173362;28;20111;-74
2023/08/18 01:02:05;;;;;;;13.27;11.30;;;;;;;17.34;100.00;98679.97;4173112;28;20056;-75
2023/08/18 01:04:06;;;;;;;15.23;10.65;;;;;;;17.31;100.00;98674.44;4171534;28;20025;-74
2023/08/18 01:06:06;;;;;;;12.95;9.73;;;;;;;17.32;100.00;98685.19;4173319;28;20021;-75
2023/08/18 01:08:07;;;;;;;12.48;10.98;;;;;;;17.26;100.00;98677.69;4172831;28;20473;-75
2023/08/18 01:10:07;;;;;;;11.18;9.13;;;;;;;17.20;100.00;98679.34;4173188;28;20456;-75
2023/08/18 01:12:30;;;;;;;11.18;10.07;;;;;;;17.15;100.00;98679.81;4173395;28;20352;-74
2023/08/18 01:15:06;;;;;;;;;;;;;;;17.11;100.00;98669.44;4173346;28;20155;-74
2023/08/18 01:17:13;;;;;;;10.90;8.27;;;;;;;17.08;100.00;98659.13;4186155;28;19936;-74
2023/08/18 01:19:14;;;;;;;10.05;9.02;;;;;;;17.08;100.00;98664.72;4177633;28;20069;-74
2023/08/18 01:21:17;;;;;;;11.35;10.02;;;;;;;17.05;100.00;98670.34;4173005;28;20128;-74
2023/08/18 01:23:17;;;;;;;12.25;10.35;;;;;;;17.01;100.00;98667.59;4172846;28;20084;-74
2023/08/18 01:25:17;;;;;;;10.18;8.93;;;;;;;17.01;100.00;98667.59;4172389;28;20140;-74
2023/08/18 01:27:17;;;;;;;10.82;9.00;;;;;;;16.97;100.00;98664.03;4173322;28;20072;-74
2023/08/18 01:29:20;;;;;;;10.35;9.02;;;;;;;16.96;100.00;98662.44;4172614;28;20049;-74
2023/08/18 01:31:24;;;;;;;;;;;;;;;16.91;100.00;98670.50;4173847;28;20045;-75
2023/08/18 01:33:31;;;;;;;10.93;9.13;;;;;;;16.87;100.00;98658.56;4170674;28;20400;-75
2023/08/18 01:35:32;;;;;;;16.13;9.98;;;;;;;16.84;100.00;98660.97;4172476;28;20578;-75
2023/08/18 01:37:34;;;;;;;10.68;9.35;;;;;;;16.82;100.00;98660.59;4172656;28;20127;-75
2023/08/18 01:39:35;;;;;;;9.90;8.90;;;;;;;16.79;100.00;98661.41;4172276;28;20110;-74
2023/08/18 01:41:36;;;;;;;12.57;11.10;;;;;;;16.83;100.00;98667.00;4172708;28;20098;-74
2023/08/18 01:43:36;;;;;;;13.70;12.13;;;;;;;16.85;100.00;98670.16;4172015;28;20098;-74
2023/08/18 01:45:38;;;;;;;15.00;11.95;;;;;;;16.82;100.00;98659.81;4173619;28;20073;-74
2023/08/18 01:47:38;;;;;;;14.68;11.60;;;;;;;16.80;100.00;98654.66;4170519;28;20527;-74
2023/08/18 01:49:38;;;;;;;14.68;11.68;;;;;;;16.83;100.00;98661.41;4171693;28;20131;-74
2023/08/18 01:51:39;;;;;;;14.10;11.18;;;;;;;16.86;100.00;98660.56;4171900;28;20489;-74
2023/08/18 01:53:40;;;;;;;16.17;11.40;;;;;;;16.90;100.00;98660.53;4171385;28;20095;-74
2023/08/18 01:55:42;;;;;;;12.20;10.90;;;;;;;16.92;100.00;98658.09;4172484;28;20080;-74
2023/08/18 01:57:42;;;;;;;14.13;11.13;;;;;;;16.91;100.00;98662.13;4171813;28;20443;-74
2023/08/18 01:59:42;;;;;;;12.55;11.25;;;;;;;16.92;100.00;98663.69;4170939;28;20174;-75
2023/08/18 02:01:43;;;;;;;15.70;11.82;;;;;;;16.91;100.00;98664.91;4170318;28;20049;-74
2023/08/18 02:03:43;;;;;;;13.43;11.10;;;;;;;16.87;100.00;98656.56;4170485;28;20662;-75
2023/08/18 02:05:43;;;;;;;13.65;11.38;;;;;;;16.87;100.00;98664.16;4171630;28;20131;-75
2023/08/18 02:07:44;;;;;;;12.80;10.70;;;;;;;16.87;100.00;98659.34;4172087;28;20566;-75
2023/08/18 02:09:44;;;;;;;13.70;11.80;;;;;;;16.83;100.00;98651.00;4171567;28;20195;-74
2023/08/18 02:11:44;;;;;;;16.67;12.00;;;;;;;16.80;100.00;98653.84;4171876;28;20080;-74
2023/08/18 02:13:44;;;;;;;12.68;11.02;;;;;;;16.79;100.00;98658.63;4171381;28;20089;-75
2023/08/18 02:15:46;;;;;;;14.43;11.80;;;;;;;16.80;100.00;98660.25;4172557;28;20047;-75
2023/08/18 02:17:46;;;;;;;13.70;11.40;;;;;;;16.82;100.00;98655.03;4170911;28;20064;-74
2023/08/18 02:19:47;;;;;;;12.90;11.52;;;;;;;16.82;100.00;98652.22;4171072;28;20080;-75
2023/08/18 02:21:47;;;;;;;13.98;11.63;;;;;;;16.78;100.00;98656.25;4172331;28;20913;-75
2023/08/18 02:23:47;;;;;;;17.15;12.38;;;;;;;16.78;100.00;98659.06;4171082;28;20111;-74
2023/08/18 02:25:48;;;;;;;16.55;12.45;;;;;;;16.70;100.00;98651.94;4171727;28;20386;-74
2023/08/18 02:27:49;;;;;;;15.48;11.50;;;;;;;16.71;100.00;98659.13;4170970;28;20052;-75
2023/08/18 02:29:52;;;;;;;21.58;13.23;;;;;;;16.65;100.00;98657.97;4171814;28;20045;-74
2023/08/18 02:31:52;;;;;;;16.42;12.55;;;;;;;16.64;100.00;98656.41;4172283;28;20049;-75
2023/08/18 02:33:52;;;;;;;15.93;12.13;;;;;;;16.64;100.00;98646.00;4171456;28;20041;-75
2023/08/18 02:35:53;;;;;;;14.32;12.23;;;;;;;16.65;100.00;98655.19;4172823;28;20428;-74
2023/08/18 02:37:53;;;;;;;17.25;11.98;;;;;;;16.67;100.00;98655.56;4172215;28;20135;-74
2023/08/18 02:39:53;;;;;;;19.10;13.13;;;;;;;16.67;100.00;98661.13;4171829;28;20059;-74
2023/08/18 02:41:55;;;;;;;16.55;12.25;;;;;;;16.64;100.00;98659.19;4172147;28;20474;-74
2023/08/18 02:43:55;;;;;;;16.80;12.02;;;;;;;16.62;100.00;98658.78;4172246;28;20048;-75
2023/08/18 02:45:57;;;;;;;14.25;12.30;;;;;;;16.67;100.00;98658.34;4172651;28;20052;-74
2023/08/18 02:47:57;;;;;;;14.27;12.32;;;;;;;16.71;100.00;98659.13;4170915;28;20204;-74
2023/08/18 02:49:58;;;;;;;13.82;11.85;;;;;;;16.74;100.00;98661.09;4172806;28;20435;-74
2023/08/18 02:51:58;;;;;;;17.35;13.60;;;;;;;16.73;100.00;98654.72;4171587;28;20052;-75
2023/08/18 02:53:58;;;;;;;19.63;12.98;;;;;;;16.77;100.00;98660.25;4171599;28;20045;-74
2023/08/18 02:56:00;;;;;;;18.13;12.55;;;;;;;16.81;100.00;98659.03;4172159;28;20401;-75
2023/08/18 02:58:01;;;;;;;16.05;12.70;;;;;;;16.85;100.00;98650.59;4171853;28;20135;-74
2023/08/18 03:00:02;;;;;;;19.95;14.45;;;;;;;16.85;100.00;98648.59;4171464;28;20049;-74
2023/08/18 03:02:03;;;;;;;19.88;14.45;;;;;;;16.87;100.00;98650.16;4171796;28;20477;-74
2023/08/18 03:04:03;;;;;;;20.17;14.30;;;;;;;16.89;100.00;98651.34;4172002;28;20165;-75
2023/08/18 03:06:05;;;;;;;26.13;15.45;;;;;;;16.87;100.00;98656.56;4171622;28;20039;-74
2023/08/18 03:08:06;;;;;;;33.63;15.43;;;;;;;16.85;100.00;98651.38;4172277;28;20036;-75
2023/08/18 03:10:07;;;;;;;19.48;14.55;;;;;;;16.85;100.00;98645.00;4171373;28;20024;-74
2023/08/18 03:12:07;;;;;;;20.20;14.18;;;;;;;16.90;100.00;98652.16;4171922;28;20458;-75
2023/08/18 03:14:10;;;;;;;25.45;16.30;;;;;;;16.90;100.00;98650.16;4171279;28;20039;-74
2023/08/18 03:16:11;;;;;;;25.52;14.88;;;;;;;16.90;100.00;98646.56;4171599;28;20033;-75
2023/08/18 03:18:11;;;;;;;18.25;13.90;;;;;;;16.88;100.00;98643.38;4171734;28;20389;-74
2023/08/18 03:20:11;;;;;;;30.67;15.60;;;;;;;16.85;100.00;98642.22;4171933;28;20029;-75
2023/08/18 03:22:12;;;;;;;18.77;15.48;;;;;;;16.85;100.00;98645.00;4172120;28;20041;-75
2023/08/18 03:24:13;;;;;;;23.52;15.95;;;;;;;16.85;100.00;98640.22;4170645;28;20037;-74
2023/08/18 03:26:13;;;;;;;21.85;16.33;;;;;;;16.88;100.00;98640.56;4171787;28;20075;-74
2023/08/18 03:28:13;;;;;;;22.25;15.20;;;;;;;16.88;100.00;98643.38;4171329;28;20052;-74
2023/08/18 03:30:14;;;;;;;21.05;15.30;;;;;;;16.90;100.00;98644.56;4172744;28;20112;-75
2023/08/18 03:32:14;;;;;;;19.92;15.82;;;;;;;16.92;100.00;98649.72;4175078;28;20061;-75
2023/08/18 03:34:14;;;;;;;23.08;16.58;;;;;;;16.91;100.00;98648.94;4174247;28;20465;-75
2023/08/18 03:36:15;;;;;;;22.15;15.73;;;;;;;16.89;100.00;98642.97;4174660;28;20089;-74
2023/08/18 03:38:15;;;;;;;22.40;15.88;;;;;;;16.88;100.00;98644.19;4174664;28;20064;-74
2023/08/18 03:40:15;;;;;;;20.98;15.40;;;;;;;16.89;100.00;98647.78;4173758;28;20060;-74
2023/08/18 03:42:16;;;;;;;36.08;16.63;;;;;;;16.85;100.00;98654.19;4174165;28;20661;-75
2023/08/18 03:44:16;;;;;;;21.27;14.38;;;;;;;16.81;100.00;98647.84;4173824;28;20044;-74
2023/08/18 03:46:28;;;;;;;44.72;17.23;;;;;;;16.78;100.00;98647.88;4175067;28;20036;-74
2023/08/18 03:48:28;;;;;;;19.98;14.23;;;;;;;16.77;100.00;98643.50;4173274;28;20132;-74
2023/08/18 03:50:29;;;;;;;39.50;15.45;;;;;;;16.70;100.00;98649.94;4173153;28;20152;-74
2023/08/18 03:52:29;;;;;;;43.30;17.33;;;;;;;16.66;100.00;98651.97;4173772;28;20110;-75
2023/08/18 03:54:30;;;;;;;19.88;14.77;;;;;;;16.66;100.00;98651.97;4173805;28;20057;-75
2023/08/18 03:56:30;;;;;;;21.45;15.38;;;;;;;16.66;100.00;98651.97;4171732;28;20048;-74
2023/08/18 03:58:30;;;;;;;17.30;14.70;;;;;;;16.66;100.00;98654.75;4173863;28;20085;-74
2023/08/18 04:00:31;;;;;;;17.80;14.57;;;;;;;16.71;100.00;98656.31;4173469;28;20064;-74
2023/08/18 04:02:31;;;;;;;15.65;13.23;;;;;;;16.70;100.00;98657.53;4173694;28;20048;-74
2023/08/18 04:04:31;;;;;;;17.23;13.25;;;;;;;16.66;100.00;98657.56;4173884;28;20201;-74
2023/08/18 04:06:32;;;;;;;15.63;12.15;;;;;;;16.64;100.00;98656.41;4173553;28;20412;-74
2023/08/18 04:08:34;;;;;;;14.77;12.27;;;;;;;16.58;100.00;98654.03;4173745;28;20508;-74
2023/08/18 04:10:34;;;;;;;33.90;14.98;;;;;;;16.55;100.00;98654.09;4173713;28;20543;-75
2023/08/18 04:12:34;;;;;;;17.08;13.07;;;;;;;16.55;100.00;98654.09;4172978;28;20047;-74
2023/08/18 04:14:34;;;;;;;19.67;12.73;;;;;;;16.52;100.00;98654.91;4174016;28;20053;-75
2023/08/18 04:16:35;;;;;;;15.38;12.95;;;;;;;16.52;100.00;98654.91;4174117;28;20412;-74
2023/08/18 04:18:35;;;;;;;16.85;13.65;;;;;;;16.52;100.00;98660.47;4173366;28;20063;-74
2023/08/18 04:20:35;;;;;;;29.40;13.75;;;;;;;16.47;100.00;98655.34;4173414;28;20118;-74
2023/08/18 04:22:37;;;;;;;31.25;15.52;;;;;;;16.47;100.00;98656.16;4173136;28;20076;-74
2023/08/18 04:24:37;;;;;;;36.10;15.68;;;;;;;16.49;100.00;98648.16;4172141;28;20083;-75
2023/08/18 04:26:37;;;;;;;19.75;14.05;;;;;;;16.52;100.00;98652.09;4172515;28;20053;-74
2023/08/18 04:28:38;;;;;;;17.77;13.10;;;;;;;16.54;100.00;98650.47;4173710;28;20053;-74
2023/08/18 04:30:39;;;;;;;15.70;13.02;;;;;;;16.60;100.00;98653.63;4173097;28;20045;-74
2023/08/18 04:32:39;;;;;;;24.38;13.35;;;;;;;16.60;100.00;98650.81;4172859;28;20396;-74
2023/08/18 04:34:39;;;;;;;26.63;14.02;;;;;;;16.62;100.00;98651.19;4173769;28;20079;-75
2023/08/18 04:36:40;;;;;;;20.38;13.55;;;;;;;16.61;100.00;98652.41;4173305;28;20052;-75
2023/08/18 04:38:40;;;;;;;19.80;12.82;;;;;;;16.59;100.00;98657.63;4173559;28;20060;-74
2023/08/18 04:40:40;;;;;;;24.30;14.07;;;;;;;16.55;100.00;98649.28;4171571;28;20124;-74
2023/08/18 04:42:41;;;;;;;44.95;14.25;;;;;;;16.54;100.00;98653.25;4172241;28;20183;-75
2023/08/18 04:44:41;;;;;;;14.50;12.05;;;;;;;16.55;100.00;98654.88;4168985;28;20132;-74
2023/08/18 04:46:41;;;;;;;34.13;13.57;;;;;;;16.55;100.00;98646.50;4166111;28;20060;-74
2023/08/18 04:48:41;;;;;;;36.72;14.20;;;;;;;16.58;100.00;98648.44;4173459;28;20099;-74
2023/08/18 04:50:42;;;;;;;19.92;14.18;;;;;;;16.56;100.00;98648.06;4172774;28;20742;-74
2023/08/18 04:52:42;;;;;;;32.92;13.50;;;;;;;16.60;100.00;98655.63;4172219;28;20124;-75
2023/08/18 04:54:42;;;;;;;12.73;10.77;;;;;;;16.62;100.00;98658.78;4165423;28;20333;-74
2023/08/18 04:56:43;;;;;;;22.63;12.07;;;;;;;16.61;100.00;98655.19;4118833;27;20075;-75
2023/08/18 04:58:44;;;;;;;37.60;13.27;;;;;;;16.61;100.00;98657.19;4133603;28;20098;-74
2023/08/18 05:00:45;;;;;;;14.45;12.63;;;;;;;16.62;100.00;98656.78;4166973;28;20128;-75
2023/08/18 05:02:45;;;;;;;54.83;15.50;;;;;;;16.51;100.00;98662.47;4167953;28;20045;-74
2023/08/18 05:04:45;;;;;;;51.22;14.65;;;;;;;16.51;100.00;98668.06;4167349;28;20042;-75
2023/08/18 05:06:46;;;;;;;16.23;11.88;;;;;;;16.48;100.00;98654.16;4161970;28;20118;-74
2023/08/18 05:08:46;;;;;;;15.63;12.00;;;;;;;16.35;100.00;98655.84;4162325;28;20112;-74
2023/08/18 05:10:46;;;;;;;17.63;12.35;;;;;;;16.32;100.00;98665.06;4165184;28;20622;-75
2023/08/18 05:12:46;;;;;;;13.88;11.30;;;;;;;16.31;100.00;98663.47;4165209;28;20076;-74
2023/08/18 05:14:47;;;;;;;21.40;12.80;;;;;;;16.30;100.00;98665.44;4171105;28;20135;-74
2023/08/18 05:16:47;;;;;;;17.38;13.43;;;;;;;16.31;100.00;98669.06;4173117;28;20428;-75
2023/08/18 05:18:48;;;;;;;16.15;12.52;;;;;;;16.34;100.00;98671.03;4172608;28;20040;-74
2023/08/18 05:20:48;;;;;;;15.27;12.52;;;;;;;16.29;100.00;98672.25;4171661;28;20072;-75
2023/08/18 05:22:48;;;;;;;14.43;11.38;;;;;;;16.27;100.00;98678.25;4169490;28;20038;-75
2023/08/18 05:24:49;;;;;;;12.43;10.40;;;;;;;16.25;100.00;98669.50;4171886;28;20426;-74
2023/08/18 05:26:49;;;;;;;12.32;9.27;;;;;;;16.26;100.00;98675.88;4170137;28;20091;-74
2023/08/18 05:28:50;;;;;;;12.30;10.15;;;;;;;16.32;100.00;98674.22;4173335;28;20052;-75
2023/08/18 05:30:52;;;;;;;14.57;10.38;;;;;;;16.34;100.00;98676.59;4172459;28;20052;-74
2023/08/18 05:32:52;;;;;;;15.68;10.00;;;;;;;16.40;100.00;98686.13;4171899;28;20036;-74
2023/08/18 05:34:54;;;;;;;12.75;9.95;;;;;;;16.41;100.00;98673.75;4172819;28;20053;-74
2023/08/18 05:36:54;;;;;;;11.60;10.15;;;;;;;16.45;100.00;98677.28;4172931;28;20422;-75
2023/08/18 05:38:55;;;;;;;15.25;11.88;;;;;;;16.48;100.00;98677.28;4171803;28;20272;-75
2023/08/18 05:41:06;;;;;;;13.20;11.27;;;;;;;16.49;100.00;98673.28;4172951;28;20068;-75
2023/08/18 05:43:06;;;;;;;20.98;14.02;;;;;;;16.51;100.00;98682.03;4172168;28;20236;-75
2023/08/18 05:45:07;;;;;;;20.02;13.48;;;;;;;16.49;100.00;98673.28;4172985;28;20045;-74
2023/08/18 05:47:07;;;;;;;36.42;14.75;;;;;;;16.55;100.00;98673.63;4173117;28;20055;-73
2023/08/18 05:49:08;;;;;;;19.70;13.57;;;;;;;16.54;100.00;98683.97;4172086;28;20041;-74
2023/08/18 05:51:08;;;;;;;14.32;11.73;;;;;;;16.56;100.00;98678.00;4172910;28;20084;-74
2023/08/18 05:53:09;;;;;;;15.18;12.80;;;;;;;16.61;100.00;98682.34;4172437;28;20099;-74
2023/08/18 05:55:09;;;;;;;14.60;11.68;;;;;;;16.68;100.00;98690.66;4172407;28;20113;-75
2023/08/18 05:57:09;;;;;;;16.30;12.30;;;;;;;16.73;100.00;98681.88;4172610;28;20045;-74
2023/08/18 05:59:10;;;;;;;16.10;12.38;;;;;;;16.76;100.00;98690.19;4204487;28;20046;-74
2023/08/18 06:01:10;;;;;;;16.85;12.30;;;;;;;16.78;100.00;98693.38;4172972;28;20514;-74
2023/08/18 06:03:11;;;;;;;13.75;11.70;;;;;;;16.76;100.00;98698.59;4172142;28;20049;-74
2023/08/18 06:05:14;;;;;;;13.40;11.98;;;;;;;16.82;100.00;98699.72;4171794;28;20045;-75
2023/08/18 06:07:14;;;;;;;13.65;11.75;;;;;;;16.86;100.00;98699.69;4172987;28;20389;-75
2023/08/18 06:09:14;;;;;;;22.58;12.60;;;;;;;16.87;100.00;98704.06;4172173;28;20041;-74
2023/08/18 06:11:15;;;;;;;22.52;13.75;;;;;;;16.86;100.00;98708.06;4172350;28;20237;-74
2023/08/18 06:13:15;;;;;;;20.02;12.85;;;;;;;16.81;100.00;98706.53;4172110;28;20049;-75
2023/08/18 06:15:20;;;;;;;14.95;13.35;;;;;;;16.81;100.00;98711.31;4170653;28;20060;-74
2023/08/18 06:17:21;;;;;;;12.98;10.73;;;;;;;16.88;100.00;98705.66;4172353;28;20056;-75
2023/08/18 06:19:22;;;;;;;15.70;13.50;;;;;;;17.00;100.00;98712.72;4171988;28;20037;-75
2023/08/18 06:21:22;;;;;;;16.88;15.00;;;;;;;17.05;100.00;98703.91;4172684;28;20041;-74
2023/08/18 06:23:22;;;;;;;17.92;13.93;;;;;;;17.13;100.00;98711.00;4172092;28;20503;-74
2023/08/18 06:25:23;;;;;;;18.35;15.27;;;;;;;17.15;100.00;98714.16;4172240;28;20057;-74
2023/08/18 06:27:23;;;;;;;19.45;15.35;;;;;;;17.19;100.00;98714.91;4172279;28;20049;-74
2023/08/18 06:29:23;;;;;;;20.02;16.48;;;;;;;17.27;100.00;98701.63;4172669;28;20045;-75
2023/08/18 06:31:24;;;;;;;16.42;14.70;;;;;;;17.38;100.00;98713.50;4172219;28;20071;-74
2023/08/18 06:33:24;;;;;;;17.00;14.43;;;;;;;17.43;100.00;98710.22;4171156;28;20072;-75
2023/08/18 06:35:24;;;;;;;17.30;14.98;;;;;;;17.49;100.00;98713.38;4172708;28;20045;-75
2023/08/18 06:37:25;;;;;;;17.90;14.60;;;;;;;17.55;100.00;98708.91;4171877;28;20033;-74
2023/08/18 06:39:26;;;;;;;17.40;13.75;;;;;;;17.58;100.00;98708.03;4172380;28;20048;-75
2023/08/18 06:41:26;;;;;;;15.60;12.98;;;;;;;17.68;100.00;98712.69;4172520;28;20132;-74
2023/08/18 06:43:26;;;;;;;16.73;13.65;;;;;;;17.76;100.00;98713.44;4171575;28;20329;-74
2023/08/18 06:45:26;;;;;;;13.27;11.88;;;;;;;17.82;100.00;98709.75;4173043;28;20461;-74
2023/08/18 06:47:27;;;;;;;16.25;13.43;;;;;;;17.87;100.00;98714.06;4171817;28;20133;-75
2023/08/18 06:49:27;;;;;;;17.40;13.63;;;;;;;17.90;100.00;98708.44;4172368;28;20125;-75
2023/08/18 06:51:28;;;;;;;15.88;13.70;;;;;;;17.92;100.00;98706.00;4171943;28;20075;-74
2023/08/18 06:53:28;;;;;;;20.15;13.48;;;;;;;17.99;100.00;98709.91;4171478;28;20079;-75
2023/08/18 06:55:30;;;;;;;16.33;12.45;;;;;;;18.06;100.00;98704.22;4172721;28;20460;-74
2023/08/18 06:57:30;;;;;;;16.80;10.85;;;;;;;18.15;100.00;98710.06;4171945;28;20056;-75
2023/08/18 06:59:30;;;;;;;11.25;10.05;;;;;;;18.20;100.00;98701.19;4172287;28;20416;-75
2023/08/18 07:01:31;;;;;;;9.40;8.45;;;;;;;18.24;100.00;98701.94;4172772;28;20136;-75
2023/08/18 07:03:31;;;;;;;9.07;8.07;;;;;;;18.31;100.00;98698.22;4170748;28;20041;-74
2023/08/18 07:05:31;;;;;;;13.43;7.82;;;;;;;18.38;100.00;98709.31;4173479;28;20389;-75
2023/08/18 07:07:34;;;;;;;11.60;9.05;;;;;;;18.45;100.00;98695.19;4175279;28;20052;-75
2023/08/18 07:09:35;;;;;;;11.95;10.23;;;;;;;18.50;100.00;98700.31;4175459;28;20052;-75
2023/08/18 07:11:35;;;;;;;12.18;10.02;;;;;;;18.57;100.00;98705.00;4175114;28;20037;-74
2023/08/18 07:13:36;;;;;;;11.93;10.43;;;;;;;18.59;100.00;98697.75;4174606;28;20048;-74
2023/08/18 07:15:36;;;;;;;10.05;9.02;;;;;;;18.63;100.00;98701.28;4175425;28;20592;-74
2023/08/18 07:17:36;;;;;;;10.13;9.13;;;;;;;18.65;100.00;98692.44;4174473;28;20041;-74
2023/08/18 07:19:37;;;;;;;9.25;8.25;;;;;;;18.79;100.00;98697.84;4163703;28;20068;-74
2023/08/18 07:21:37;;;;;;;13.18;9.07;;;;;;;18.86;100.00;98694.09;4174828;28;20044;-74
2023/08/18 07:23:37;;;;;;;9.07;7.93;;;;;;;18.93;100.00;98696.78;4174833;28;20045;-75
2023/08/18 07:25:39;;;;;;;8.40;7.60;;;;;;;19.01;100.00;98696.22;4174819;28;20052;-74
2023/08/18 07:27:39;;;;;;;9.85;8.05;;;;;;;19.09;100.00;98703.25;4175100;28;20168;-75
2023/08/18 07:29:39;;;;;;;12.27;9.27;;;;;;;19.15;100.00;98697.16;4175160;28;20085;-75
2023/08/18 07:31:42;;;;;;;11.55;9.35;;;;;;;19.19;100.00;98692.25;4174445;28;20051;-74
2023/08/18 07:33:42;;;;;;;9.32;8.32;;;;;;;19.27;100.00;98705.72;4174475;28;20087;-74
2023/08/18 07:35:43;;;;;;;8.88;7.95;;;;;;;19.33;100.00;98694.78;4174833;28;20049;-74
2023/08/18 07:37:43;;;;;;;9.60;8.00;;;;;;;19.38;100.00;98690.72;4174968;28;20142;-75
2023/08/18 07:39:43;;;;;;;12.85;8.52;;;;;;;19.40;100.00;98691.84;4175167;28;20095;-74
2023/08/18 07:41:44;;;;;;;10.48;9.07;;;;;;;19.45;100.00;98696.97;4174636;28;20099;-74
2023/08/18 07:43:44;;;;;;;10.07;8.05;;;;;;;19.53;100.00;98697.59;4174279;28;20045;-74
2023/08/18 07:45:45;;;;;;;9.85;8.25;;;;;;;19.65;100.00;98699.78;4174023;28;20126;-74
2023/08/18 07:47:46;;;;;;;9.50;8.60;;;;;;;19.71;100.00;98700.06;4174885;28;20068;-74
2023/08/18 07:49:47;;;;;;;12.57;8.43;;;;;;;19.77;100.00;98701.09;4174971;28;20041;-74
2023/08/18 07:51:47;;;;;;;9.25;7.97;;;;;;;19.78;100.00;98706.31;4174362;28;20459;-74
2023/08/18 07:53:47;;;;;;;11.30;8.95;;;;;;;19.86;100.00;98707.75;4174081;28;20045;-74
2023/08/18 07:55:48;;;;;;;10.38;9.25;;;;;;;19.88;100.00;98693.25;4158309;28;20108;-74
2023/08/18 07:57:48;;;;;;;9.63;8.65;;;;;;;20.02;100.00;98711.78;4173065;28;20044;-74
2023/08/18 07:59:49;;;;;;;10.68;9.55;;;;;;;20.06;100.00;98707.69;4174128;28;20386;-75
2023/08/18 08:01:49;;;;;;;11.57;8.95;;;;;;;20.07;100.00;98702.84;4174377;28;20049;-74
2023/08/18 08:03:49;;;;;;;8.63;7.72;;;;;;;20.16;100.00;98709.44;4174132;28;20048;-74
2023/08/18 08:05:50;;;;;;;9.35;8.20;;;;;;;20.21;100.00;98708.13;4174380;28;20044;-74
2023/08/18 08:07:51;;;;;;;10.45;7.70;;;;;;;20.27;100.00;98709.19;4174164;28;20049;-75
2023/08/18 08:09:53;;;;;;;12.60;8.57;;;;;;;20.36;100.00;98717.03;4174134;28;20477;-74
2023/08/18 08:11:54;;;;;;;11.40;8.27;;;;;;;20.39;100.00;98708.50;4174584;28;20144;-74
2023/08/18 08:13:54;;;;;;;8.95;8.05;;;;;;;20.41;100.00;98708.06;4173669;28;20497;-74
2023/08/18 08:15:54;;;;;;;10.23;9.13;;;;;;;20.48;100.00;98705.88;4173575;28;20384;-75
2023/08/18 08:17:55;;;;;;;11.10;9.40;;;;;;;20.58;100.00;98714.50;4173686;28;20278;-74
2023/08/18 08:19:57;;;;;;;9.20;8.00;;;;;;;20.71;100.00;98716.16;4173749;28;20529;-75
2023/08/18 08:21:58;;;;;;;10.98;8.98;;;;;;;20.79;100.00;98725.22;4174140;28;20045;-75
2023/08/18 08:23:58;;;;;;;10.63;8.40;;;;;;;20.85;100.00;98714.19;4173453;28;20519;-74
2023/08/18 08:25:58;;;;;;;9.75;8.65;;;;;;;20.90;100.00;98716.50;4173724;28;20041;-75
2023/08/18 08:27:59;;;;;;;10.90;8.93;;;;;;;20.93;100.00;98716.38;4160393;28;20474;-74
2023/08/18 08:30:00;;;;;;;10.38;9.15;;;;;;;20.96;100.00;98717.53;4173252;28;20451;-74
2023/08/18 08:32:00;;;;;;;10.18;9.20;;;;;;;21.08;100.00;98716.78;4174108;28;20041;-74
2023/08/18 08:34:00;;;;;;;9.82;8.82;;;;;;;21.10;100.00;98711.53;4173267;28;20045;-75
2023/08/18 08:36:01;;;;;;;10.32;9.23;;;;;;;21.18;100.00;98715.72;4173574;28;20059;-76
2023/08/18 08:38:01;;;;;;;10.45;9.00;;;;;;;21.23;100.00;98714.38;4174210;28;20619;-76
2023/08/18 08:40:02;;;;;;;10.93;9.82;;;;;;;21.27;100.00;98715.13;4173518;28;20401;-74
2023/08/18 08:42:02;;;;;;;10.80;9.80;;;;;;;21.35;100.00;98710.88;4173880;28;20037;-75
2023/08/18 08:44:03;;;;;;;10.45;9.45;;;;;;;21.38;100.00;98721.22;4173315;28;20033;-74
2023/08/18 08:46:04;;;;;;;10.38;9.25;;;;;;;21.37;100.00;98711.22;4174052;28;20440;-75
2023/08/18 08:48:11;;;;;;;10.68;9.57;;;;;;;21.39;100.00;98717.19;4173491;28;20509;-75
2023/08/18 08:50:13;;;;;;;10.52;9.52;;;;;;;21.44;100.00;98719.47;4174020;28;20037;-75
2023/08/18 08:52:16;;;;;;;;;;;;;;;21.53;100.00;98711.16;4172884;28;20067;-74
2023/08/18 08:54:20;;;;;;;11.10;10.00;;;;;;;21.63;100.00;98705.66;4173172;28;20008;-74
2023/08/18 08:56:22;;;;;;;12.98;11.20;;;;;;;21.74;100.00;98706.91;4173511;28;20040;-75
2023/08/18 08:58:22;;;;;;;11.85;9.73;;;;;;;21.85;100.00;98704.56;4173270;28;20041;-74
2023/08/18 09:00:24;;;;;;;10.70;9.02;;;;;;;21.93;100.00;98704.31;4173489;28;21080;-74
2023/08/18 09:02:24;;;;;;;11.38;9.75;;;;;;;21.99;100.00;98705.34;4173083;28;20033;-75
2023/08/18 09:04:25;;;;;;;11.27;10.18;;;;;;;21.98;100.00;98710.19;4172781;28;20036;-75
2023/08/18 09:06:25;;;;;;;10.95;9.80;;;;;;;22.03;100.00;98712.47;4173540;28;20052;-75
2023/08/18 09:08:25;;;;;;;11.77;10.57;;;;;;;22.09;100.00;98707.06;4173306;28;20041;-75
2023/08/18 09:10:26;;;;;;;12.98;10.13;;;;;;;22.10;100.00;98706.66;4173273;28;20522;-75
2023/08/18 09:12:30;;;;;;;12.95;9.70;;;;;;;22.13;100.00;98697.28;4172844;28;20033;-75